createdAt,value
2018-07-03T00:01:07.065Z,65.70
2018-07-03T00:03:37.100Z,65.70
2018-07-03T00:06:07.169Z,65.50
2018-07-03T00:08:37.224Z,66.00
2018-07-03T00:11:07.284Z,65.80
2018-07-03T00:13:37.332Z,65.70
2018-07-03T00:16:07.474Z,66.00
2018-07-03T00:18:37.511Z,66.10
2018-07-03T00:21:08.540Z,66.50
2018-07-03T00:23:38.616Z,66.20
2018-07-03T00:26:08.628Z,66.90
2018-07-03T00:28:38.675Z,66.60
2018-07-03T00:31:08.712Z,66.50
2018-07-03T00:33:38.800Z,66.50
2018-07-03T00:36:08.932Z,66.20
2018-07-03T00:38:39.048Z,66.40
2018-07-03T00:41:09.116Z,65.80
2018-07-03T00:43:39.264Z,65.80
2018-07-03T00:46:09.255Z,66.20
2018-07-03T00:48:39.372Z,66.00
2018-07-03T00:51:09.494Z,66.20
2018-07-03T00:53:39.580Z,66.10
2018-07-03T00:56:09.712Z,66.10
2018-07-03T00:58:39.772Z,66.50
2018-07-03T01:01:09.788Z,66.00
2018-07-03T01:03:39.880Z,65.90
2018-07-03T01:06:09.932Z,66.00
2018-07-03T01:08:40.021Z,66.20
2018-07-03T01:11:10.123Z,66.80
2018-07-03T01:13:40.228Z,65.70
2018-07-03T01:16:10.307Z,66.00
2018-07-03T01:18:40.439Z,65.90
2018-07-03T01:21:10.527Z,66.40
2018-07-03T01:23:40.611Z,66.60
2018-07-03T01:26:10.684Z,66.90
2018-07-03T01:28:40.752Z,66.60
2018-07-03T01:31:10.788Z,66.40
2018-07-03T01:33:40.948Z,66.50
2018-07-03T01:36:11.182Z,66.60
2018-07-03T01:38:41.160Z,66.30
2018-07-03T01:41:11.453Z,66.30
2018-07-03T01:43:41.504Z,66.00
2018-07-03T01:46:11.596Z,66.30
2018-07-03T01:48:41.664Z,66.20
2018-07-03T01:51:11.758Z,66.50
2018-07-03T01:53:41.828Z,66.70
2018-07-03T01:56:11.853Z,66.90
2018-07-03T01:58:41.977Z,66.60
2018-07-03T02:01:12.088Z,66.70
2018-07-03T02:03:42.179Z,66.80
2018-07-03T02:06:12.279Z,66.30
2018-07-03T02:08:42.447Z,66.30
2018-07-03T02:11:12.461Z,66.70
2018-07-03T02:13:42.584Z,66.50
2018-07-03T02:16:12.687Z,66.40
2018-07-03T02:18:42.770Z,67.10
2018-07-03T02:21:12.986Z,66.80
2018-07-03T02:23:43.107Z,67.10
2018-07-03T02:26:13.180Z,66.80
2018-07-03T02:28:43.313Z,66.90
2018-07-03T02:31:13.402Z,67.40
2018-07-03T02:33:43.504Z,67.50
2018-07-03T02:36:13.604Z,67.70
2018-07-03T02:38:43.656Z,67.90
2018-07-03T02:41:13.830Z,68.20
2018-07-03T02:43:43.908Z,68.40
2018-07-03T02:46:14.004Z,68.40
2018-07-03T02:48:44.143Z,68.70
2018-07-03T02:51:14.636Z,68.30
2018-07-03T02:53:44.796Z,68.30
2018-07-03T02:56:14.877Z,68.50
2018-07-03T02:58:45.132Z,68.80
2018-07-03T03:01:15.295Z,68.50
2018-07-03T03:03:45.460Z,69.20
2018-07-03T03:06:15.568Z,68.70
2018-07-03T03:08:45.670Z,68.40
2018-07-03T03:11:15.737Z,68.20
2018-07-03T03:13:45.832Z,68.60
2018-07-03T03:16:15.912Z,68.10
2018-07-03T03:18:46.047Z,67.90
2018-07-03T03:21:16.228Z,68.10
2018-07-03T03:23:46.328Z,67.70
2018-07-03T03:26:16.484Z,68.90
2018-07-03T03:28:46.573Z,68.40
2018-07-03T03:31:16.669Z,68.80
2018-07-03T03:33:46.732Z,68.00
2018-07-03T03:36:16.829Z,68.50
2018-07-03T03:38:46.908Z,68.80
2018-07-03T03:41:17.012Z,67.50
2018-07-03T03:43:47.120Z,67.60
2018-07-03T03:46:17.252Z,68.30
2018-07-03T03:48:47.428Z,68.10
2018-07-03T03:51:17.580Z,67.60
2018-07-03T03:53:47.707Z,67.70
2018-07-03T03:56:17.880Z,67.40
2018-07-03T03:58:48.052Z,67.80
2018-07-03T04:01:18.132Z,67.50
2018-07-03T04:03:48.268Z,67.20
2018-07-03T04:06:18.557Z,67.20
2018-07-03T04:08:48.660Z,67.00
2018-07-03T04:11:18.761Z,66.60
2018-07-03T04:13:48.872Z,66.50
2018-07-03T04:16:19.055Z,67.10
2018-07-03T04:18:49.164Z,67.10
2018-07-03T04:21:19.280Z,66.30
2018-07-03T04:23:49.488Z,66.50
2018-07-03T04:26:19.571Z,65.70
2018-07-03T04:28:49.812Z,65.50
2018-07-03T04:31:19.948Z,66.00
2018-07-03T04:33:50.172Z,65.30
2018-07-03T04:36:20.260Z,65.40
2018-07-03T04:38:50.452Z,66.00
2018-07-03T04:41:20.718Z,65.10
2018-07-03T04:43:50.832Z,65.40
2018-07-03T04:46:20.920Z,65.70
2018-07-03T04:48:51.043Z,65.50
2018-07-03T04:51:21.112Z,65.00
2018-07-03T04:53:51.260Z,65.20
2018-07-03T04:56:21.360Z,65.10
2018-07-03T04:58:51.415Z,64.60
2018-07-03T05:01:21.532Z,64.60
2018-07-03T05:03:51.619Z,64.90
2018-07-03T05:06:21.676Z,65.00
2018-07-03T05:08:51.842Z,64.50
2018-07-03T05:11:22.007Z,64.30
2018-07-03T05:13:52.092Z,64.30
2018-07-03T05:16:22.263Z,64.10
2018-07-03T05:18:52.344Z,64.30
2018-07-03T05:21:22.415Z,64.50
2018-07-03T05:23:52.551Z,64.20
2018-07-03T05:26:22.664Z,64.00
2018-07-03T05:28:53.032Z,64.30
2018-07-03T05:31:23.194Z,63.50
2018-07-03T05:33:53.376Z,63.50
2018-07-03T05:36:23.496Z,63.20
2018-07-03T05:38:53.566Z,63.70
2018-07-03T05:41:23.716Z,63.30
2018-07-03T05:43:53.968Z,63.50
2018-07-03T05:46:24.110Z,63.30
2018-07-03T05:48:54.172Z,64.10
2018-07-03T05:51:24.347Z,63.40
2018-07-03T05:53:54.444Z,62.50
2018-07-03T05:56:24.583Z,62.70
2018-07-03T05:58:55.083Z,63.40
2018-07-03T06:01:25.245Z,63.30
2018-07-03T06:03:55.448Z,63.40
2018-07-03T06:06:25.536Z,63.70
2018-07-03T06:08:55.667Z,63.60
2018-07-03T06:11:25.948Z,62.20
2018-07-03T06:13:56.100Z,62.30
2018-07-03T06:16:26.207Z,62.20
2018-07-03T06:18:56.414Z,62.70
2018-07-03T06:21:26.600Z,62.80
2018-07-03T06:23:56.753Z,62.00
2018-07-03T06:26:26.900Z,62.30
2018-07-03T06:28:57.061Z,62.10
2018-07-03T06:31:27.132Z,62.50
2018-07-03T06:33:57.242Z,62.50
2018-07-03T06:36:27.385Z,62.50
2018-07-03T06:38:57.488Z,61.70
2018-07-03T06:41:27.584Z,61.10
2018-07-03T06:43:57.732Z,62.00
2018-07-03T06:46:27.849Z,61.30
2018-07-03T06:48:57.936Z,61.20
2018-07-03T06:51:28.074Z,62.20
2018-07-03T06:53:58.805Z,61.80
2018-07-03T06:56:29.223Z,61.60
2018-07-03T06:58:59.521Z,61.20
2018-07-03T07:01:29.639Z,61.60
2018-07-03T07:03:59.756Z,62.00
2018-07-03T07:06:29.892Z,61.60
2018-07-03T07:09:02.901Z,61.40
2018-07-03T07:11:32.958Z,61.60
2018-07-03T07:14:03.311Z,61.20
2018-07-03T07:16:33.472Z,61.30
2018-07-03T07:19:03.580Z,61.30
2018-07-03T07:21:33.718Z,60.70
2018-07-03T07:24:03.824Z,60.90
2018-07-03T07:26:33.948Z,60.70
2018-07-03T07:29:04.145Z,60.90
2018-07-03T07:31:34.282Z,61.60
2018-07-03T07:34:04.524Z,60.20
2018-07-03T07:36:34.656Z,61.00
2018-07-03T07:39:08.231Z,60.30
2018-07-03T07:41:38.360Z,60.70
2018-07-03T07:44:09.076Z,59.70
2018-07-03T07:46:39.157Z,59.40
2018-07-03T07:49:09.200Z,59.70
2018-07-03T07:51:39.346Z,59.80
2018-07-03T07:54:09.490Z,59.60
2018-07-03T07:56:39.690Z,59.70
2018-07-03T07:59:09.844Z,59.30
2018-07-03T08:01:40.003Z,59.40
2018-07-03T08:04:10.121Z,59.60
2018-07-03T08:06:40.282Z,59.30
2018-07-03T08:09:10.832Z,59.60
2018-07-03T08:11:41.804Z,59.30
2018-07-03T08:14:11.944Z,59.30
2018-07-03T08:16:42.012Z,59.10
2018-07-03T08:19:12.202Z,59.20
2018-07-03T08:21:42.452Z,58.30
2018-07-03T08:24:12.564Z,58.80
2018-07-03T08:26:42.687Z,58.70
2018-07-03T08:29:12.815Z,58.20
2018-07-03T08:31:42.956Z,57.40
2018-07-03T08:34:13.064Z,57.60
2018-07-03T08:36:43.183Z,57.60
2018-07-03T08:39:13.737Z,57.00
2018-07-03T08:41:43.892Z,56.10
2018-07-03T08:44:14.012Z,55.70
2018-07-03T08:46:44.140Z,56.40
2018-07-03T08:49:14.271Z,56.20
2018-07-03T08:51:44.481Z,56.00
2018-07-03T08:54:14.898Z,56.10
2018-07-03T08:56:45.044Z,56.60
2018-07-03T08:59:15.137Z,57.00
2018-07-03T09:01:45.212Z,56.60
2018-07-03T09:04:15.420Z,56.90
2018-07-03T09:06:45.512Z,57.00
2018-07-03T09:09:15.717Z,57.10
2018-07-03T09:11:45.881Z,57.30
2018-07-03T09:14:16.120Z,57.40
2018-07-03T09:16:46.259Z,57.70
2018-07-03T09:19:16.843Z,56.70
2018-07-03T09:21:46.943Z,56.60
2018-07-03T09:24:17.076Z,57.00
2018-07-03T09:26:47.188Z,56.90
2018-07-03T09:29:17.241Z,56.50
2018-07-03T09:31:47.384Z,55.90
2018-07-03T09:34:17.564Z,56.40
2018-07-03T09:36:47.728Z,56.60
2018-07-03T09:39:17.954Z,56.80
2018-07-03T09:41:48.082Z,56.10
2018-07-03T09:44:18.284Z,56.20
2018-07-03T09:46:48.689Z,56.00
2018-07-03T09:49:18.869Z,56.10
2018-07-03T09:51:49.044Z,55.90
2018-07-03T09:54:19.242Z,56.50
2018-07-03T09:56:49.436Z,56.30
2018-07-03T09:59:19.549Z,56.30
2018-07-03T10:01:49.615Z,56.70
2018-07-03T10:04:19.732Z,56.50
2018-07-03T10:06:50.053Z,56.20
2018-07-03T10:09:20.265Z,56.40
2018-07-03T10:11:50.402Z,55.90
2018-07-03T10:14:20.565Z,55.50
2018-07-03T10:16:50.646Z,55.90
2018-07-03T10:19:20.820Z,56.00
2018-07-03T10:21:50.898Z,55.40
2018-07-03T10:24:20.960Z,55.80
2018-07-03T10:26:51.124Z,54.90
2018-07-03T10:29:21.311Z,55.40
2018-07-03T10:31:51.388Z,55.60
2018-07-03T10:34:21.505Z,55.40
2018-07-03T10:36:51.614Z,55.10
2018-07-03T10:39:21.743Z,55.50
2018-07-03T10:41:51.803Z,54.00
2018-07-03T10:44:21.928Z,55.00
2018-07-03T10:46:52.084Z,54.40
2018-07-03T10:49:22.337Z,54.60
2018-07-03T10:54:22.073Z,55.10
2018-07-03T10:56:52.283Z,54.60
2018-07-03T10:59:22.405Z,53.40
2018-07-03T11:01:52.480Z,53.00
2018-07-03T11:04:22.682Z,53.80
2018-07-03T11:06:52.781Z,53.30
2018-07-03T11:09:22.900Z,53.20
2018-07-03T11:11:53.017Z,53.90
2018-07-03T11:14:23.143Z,52.20
2018-07-03T11:16:53.267Z,52.80
2018-07-03T11:19:23.363Z,51.30
2018-07-03T11:21:53.499Z,51.20
2018-07-03T11:24:23.676Z,50.10
2018-07-03T11:26:53.952Z,50.40
2018-07-03T11:29:24.163Z,49.60
2018-07-03T11:31:54.229Z,50.60
2018-07-03T11:34:24.380Z,50.30
2018-07-03T11:36:54.633Z,48.60
2018-07-03T11:39:24.768Z,49.10
2018-07-03T11:41:54.836Z,47.90
2018-07-03T11:44:25.044Z,47.00
2018-07-03T11:46:55.208Z,47.40
2018-07-03T11:49:25.394Z,47.10
2018-07-03T11:51:55.496Z,47.40
2018-07-03T11:54:25.628Z,47.30
2018-07-03T11:56:55.720Z,47.60
2018-07-03T11:59:25.821Z,48.10
2018-07-03T12:01:55.956Z,48.70
2018-07-03T12:04:26.070Z,49.10
2018-07-03T12:06:56.804Z,49.60
2018-07-03T12:09:26.892Z,49.50
2018-07-03T12:11:57.004Z,49.50
2018-07-03T12:14:27.121Z,50.50
2018-07-03T12:16:57.272Z,50.40
2018-07-03T12:19:27.401Z,50.70
2018-07-03T12:21:57.575Z,50.50
2018-07-03T12:24:27.779Z,51.10
2018-07-03T12:26:58.052Z,51.00
2018-07-03T12:29:28.256Z,51.40
2018-07-03T12:31:58.343Z,51.70
2018-07-03T12:34:28.534Z,52.00
2018-07-03T12:36:58.680Z,51.90
2018-07-03T12:39:28.731Z,51.90
2018-07-03T12:41:58.922Z,51.20
2018-07-03T12:44:29.047Z,50.70
2018-07-03T12:46:59.238Z,50.40
2018-07-03T12:49:29.518Z,50.70
2018-07-03T12:51:59.644Z,49.90
2018-07-03T12:54:29.744Z,50.40
2018-07-03T12:56:59.844Z,49.10
2018-07-03T12:59:29.968Z,50.40
2018-07-03T13:02:00.373Z,49.30
2018-07-03T13:04:30.472Z,49.20
2018-07-03T13:07:00.604Z,49.60
2018-07-03T13:09:30.768Z,49.90
2018-07-03T13:12:00.912Z,48.70
2018-07-03T13:14:31.008Z,49.20
2018-07-03T13:17:01.216Z,49.00
2018-07-03T13:19:31.312Z,49.30
2018-07-03T13:22:01.445Z,49.30
2018-07-03T13:24:31.464Z,48.30
2018-07-03T13:27:01.618Z,47.80
2018-07-03T13:29:31.728Z,47.80
2018-07-03T13:32:01.845Z,48.20
2018-07-03T13:34:31.946Z,47.70
2018-07-03T13:37:02.066Z,48.10
2018-07-03T13:39:32.144Z,48.40
2018-07-03T13:42:02.239Z,47.80
2018-07-03T13:44:32.366Z,48.40
2018-07-03T13:47:02.669Z,48.20
2018-07-03T13:49:32.776Z,47.70
2018-07-03T13:52:03.205Z,47.90
2018-07-03T13:54:33.356Z,48.20
2018-07-03T13:57:03.460Z,47.40
2018-07-03T13:59:33.616Z,48.40
2018-07-03T14:02:03.720Z,48.10
2018-07-03T14:04:33.992Z,47.50
2018-07-03T14:07:04.180Z,48.10
2018-07-03T14:09:35.307Z,48.40
2018-07-03T14:12:05.511Z,48.60
2018-07-03T14:14:35.603Z,48.30
2018-07-03T14:17:05.756Z,47.70
2018-07-03T14:19:35.927Z,48.10
2018-07-03T14:22:06.062Z,47.80
2018-07-03T14:24:36.132Z,47.40
2018-07-03T14:27:06.281Z,48.00
2018-07-03T14:29:36.392Z,47.80
2018-07-03T14:32:06.542Z,47.20
2018-07-03T14:34:36.700Z,47.80
2018-07-03T14:37:07.060Z,47.70
2018-07-03T14:39:37.188Z,47.30
2018-07-03T14:42:07.326Z,47.00
2018-07-03T14:44:37.436Z,47.50
2018-07-03T14:47:07.616Z,47.50
2018-07-03T14:49:37.669Z,47.00
2018-07-03T14:52:07.819Z,46.80
2018-07-03T14:54:37.928Z,47.60
2018-07-03T14:57:08.090Z,47.10
2018-07-03T14:59:38.220Z,47.80
2018-07-03T15:02:08.376Z,47.50
2018-07-03T15:04:38.512Z,47.50
2018-07-03T15:07:08.615Z,47.40
2018-07-03T15:09:38.759Z,47.50
2018-07-03T15:12:08.876Z,46.90
2018-07-03T15:14:39.031Z,46.50
2018-07-03T15:17:09.360Z,46.50
2018-07-03T15:19:44.694Z,46.80
2018-07-03T15:22:15.528Z,46.50
2018-07-03T15:24:45.760Z,47.10
2018-07-03T15:27:15.908Z,46.20
2018-07-03T15:29:45.966Z,46.40
2018-07-03T15:32:16.150Z,46.70
2018-07-03T15:34:46.634Z,46.40
2018-07-03T15:37:16.797Z,46.50
2018-07-03T15:39:46.930Z,46.70
2018-07-03T15:42:17.066Z,45.70
2018-07-03T15:44:58.267Z,45.40
2018-07-03T15:47:28.334Z,45.10
2018-07-03T15:49:58.414Z,45.20
2018-07-03T15:52:28.491Z,45.50
2018-07-03T15:54:58.680Z,45.50
2018-07-03T15:57:29.016Z,44.70
2018-07-03T15:59:59.135Z,44.20
2018-07-03T16:02:29.233Z,44.80
2018-07-03T16:05:12.077Z,44.10
2018-07-03T16:08:01.887Z,44.50
2018-07-03T16:10:32.016Z,44.30
2018-07-03T16:13:02.188Z,44.30
2018-07-03T16:15:32.334Z,44.60
2018-07-03T16:18:02.405Z,44.70
2018-07-03T16:20:37.860Z,44.50
2018-07-03T16:23:08.080Z,44.60
2018-07-03T16:25:38.316Z,43.10
2018-07-03T16:28:08.445Z,43.80
2018-07-03T16:30:38.536Z,43.90
2018-07-03T16:33:08.614Z,43.60
2018-07-03T16:35:38.802Z,44.00
2018-07-03T16:38:08.938Z,42.50
2018-07-03T16:40:39.038Z,43.60
2018-07-03T16:43:09.203Z,43.60
2018-07-03T16:45:39.311Z,43.40
2018-07-03T16:48:09.521Z,43.60
2018-07-03T16:50:39.607Z,42.10
2018-07-03T16:53:09.761Z,43.30
2018-07-03T16:55:39.868Z,42.10
2018-07-03T16:58:10.026Z,42.70
2018-07-03T17:00:40.072Z,42.60
2018-07-03T17:03:10.236Z,43.00
2018-07-03T17:05:40.422Z,42.90
2018-07-03T17:08:10.568Z,43.20
2018-07-03T17:10:40.736Z,42.30
2018-07-03T17:13:10.864Z,42.30
2018-07-03T17:15:40.924Z,42.20
2018-07-03T17:18:11.052Z,41.20
2018-07-03T17:20:41.165Z,39.80
2018-07-03T17:23:11.223Z,40.30
2018-07-03T17:25:41.447Z,41.70
2018-07-03T17:28:11.585Z,41.60
2018-07-03T17:30:41.920Z,41.50
2018-07-03T17:33:12.049Z,40.70
2018-07-03T17:35:42.200Z,41.40
2018-07-03T17:38:12.295Z,41.70
2018-07-03T17:40:53.605Z,41.30
2018-07-03T17:43:36.785Z,41.20
2018-07-03T17:46:08.262Z,41.00
2018-07-03T17:48:38.484Z,41.20
2018-07-03T17:51:08.843Z,41.30
2018-07-03T17:53:38.996Z,41.00
2018-07-03T17:56:09.156Z,40.60
2018-07-03T17:58:39.370Z,40.20
2018-07-03T18:01:09.508Z,39.80
2018-07-03T18:03:39.609Z,38.80
2018-07-03T18:06:09.770Z,40.00
2018-07-03T18:08:39.892Z,40.00
2018-07-03T18:11:10.018Z,40.20
2018-07-03T18:13:40.090Z,39.50
2018-07-03T18:16:10.286Z,40.20
2018-07-03T18:18:40.444Z,40.20
2018-07-03T18:21:10.987Z,39.70
2018-07-03T18:23:41.396Z,39.90
2018-07-03T18:26:11.488Z,40.20
2018-07-03T18:28:41.679Z,40.10
2018-07-03T18:31:11.824Z,40.20
2018-07-03T18:33:41.948Z,40.00
2018-07-03T18:36:12.040Z,39.20
2018-07-03T18:38:42.192Z,39.40
2018-07-03T18:41:12.338Z,39.30
2018-07-03T18:43:42.599Z,39.30
2018-07-03T18:46:12.787Z,38.60
2018-07-03T18:48:42.964Z,39.20
2018-07-03T18:51:13.184Z,39.70
2018-07-03T18:53:43.281Z,39.30
2018-07-03T18:56:13.381Z,39.80
2018-07-03T18:58:43.656Z,39.50
2018-07-03T19:01:13.784Z,39.70
2018-07-03T19:03:43.949Z,40.20
2018-07-03T19:06:14.236Z,39.30
2018-07-03T19:08:44.427Z,38.90
2018-07-03T19:11:14.622Z,39.10
2018-07-03T19:13:44.780Z,39.90
2018-07-03T19:16:14.883Z,40.30
2018-07-03T19:18:44.980Z,39.90
2018-07-03T19:21:15.094Z,39.50
2018-07-03T19:23:45.233Z,40.30
2018-07-03T19:26:15.360Z,40.40
2018-07-03T19:28:45.513Z,40.00
2018-07-03T19:31:15.752Z,40.50
2018-07-03T19:33:45.868Z,40.90
2018-07-03T19:36:16.136Z,41.50
2018-07-03T19:38:46.382Z,41.40
2018-07-03T19:41:16.547Z,42.10
2018-07-03T19:43:46.640Z,41.50
2018-07-03T19:46:16.765Z,41.90
2018-07-03T19:48:46.824Z,41.70
2018-07-03T19:51:16.896Z,42.00
2018-07-03T19:53:47.060Z,41.50
2018-07-03T19:56:17.134Z,41.80
2018-07-03T19:58:47.297Z,42.20
2018-07-03T20:01:17.384Z,42.40
2018-07-03T20:03:47.641Z,42.20
2018-07-03T20:06:17.760Z,42.40
2018-07-03T20:08:47.912Z,42.90
2018-07-03T20:11:18.005Z,42.80
2018-07-03T20:13:48.219Z,43.50
2018-07-03T20:16:18.336Z,43.50
2018-07-03T20:18:48.507Z,44.00
2018-07-03T20:21:18.588Z,44.00
2018-07-03T20:23:48.679Z,44.50
2018-07-03T20:26:18.824Z,44.00
2018-07-03T20:28:48.849Z,44.30
2018-07-03T20:31:19.419Z,44.20
2018-07-03T20:33:49.587Z,45.10
2018-07-03T20:36:19.696Z,44.20
2018-07-03T20:38:49.767Z,44.60
2018-07-03T20:41:19.963Z,45.00
2018-07-03T20:43:50.124Z,45.00
2018-07-03T20:46:20.216Z,45.30
2018-07-03T20:48:50.386Z,45.00
2018-07-03T20:51:20.497Z,45.00
2018-07-03T20:53:50.608Z,44.60
2018-07-03T20:56:20.728Z,44.90
2018-07-03T20:58:50.816Z,45.00
2018-07-03T21:01:20.931Z,45.20
2018-07-03T21:03:51.048Z,45.10
2018-07-03T21:06:21.140Z,45.20
2018-07-03T21:08:51.152Z,46.40
2018-07-03T21:11:21.207Z,46.00
2018-07-03T21:13:51.364Z,46.30
2018-07-03T21:16:21.448Z,46.30
2018-07-03T21:18:51.468Z,46.10
2018-07-03T21:21:21.510Z,46.80
2018-07-03T21:23:51.605Z,47.00
2018-07-03T21:26:21.699Z,47.80
2018-07-03T21:28:51.747Z,47.50
2018-07-03T21:31:21.812Z,48.70
2018-07-03T21:33:51.882Z,48.80
2018-07-03T21:36:21.956Z,49.80
2018-07-03T21:38:52.047Z,50.00
2018-07-03T21:41:22.080Z,49.30
2018-07-03T21:43:52.135Z,49.00
2018-07-03T21:48:51.936Z,50.30
2018-07-03T21:51:22.032Z,49.50
2018-07-03T21:53:52.012Z,49.50
2018-07-03T21:56:22.116Z,49.40
2018-07-03T21:58:52.394Z,49.50
2018-07-03T22:01:22.422Z,49.60
2018-07-03T22:03:52.411Z,48.90
2018-07-03T22:06:22.474Z,48.90
2018-07-03T22:08:52.552Z,49.20
2018-07-03T22:11:22.620Z,49.10
2018-07-03T22:13:53.142Z,50.10
2018-07-03T22:16:23.289Z,49.80
2018-07-03T22:18:53.325Z,49.50
2018-07-03T22:21:23.339Z,49.30
2018-07-03T22:23:53.408Z,49.30
2018-07-03T22:26:23.448Z,49.70
2018-07-03T22:28:53.676Z,49.10
2018-07-03T22:31:23.661Z,49.20
2018-07-03T22:33:53.727Z,49.30
2018-07-03T22:36:23.784Z,49.10
2018-07-03T22:38:53.836Z,49.20
2018-07-03T22:41:23.940Z,49.20
2018-07-03T22:43:54.132Z,49.90
2018-07-03T22:46:24.172Z,50.20
2018-07-03T22:48:54.217Z,50.20
2018-07-03T22:51:30.624Z,50.00
2018-07-03T22:54:00.656Z,49.90
2018-07-03T22:56:30.718Z,50.00
2018-07-03T22:59:01.020Z,50.30
2018-07-03T23:01:31.154Z,50.60
2018-07-03T23:04:01.233Z,50.80
2018-07-03T23:06:31.276Z,50.80
2018-07-03T23:09:01.370Z,50.50
2018-07-03T23:11:31.440Z,51.10
2018-07-03T23:14:01.511Z,50.70
2018-07-03T23:16:31.701Z,50.80
2018-07-03T23:19:01.812Z,51.30
2018-07-03T23:21:31.832Z,50.70
2018-07-03T23:24:01.876Z,51.20
2018-07-03T23:26:31.909Z,51.10
2018-07-03T23:29:01.968Z,50.90
2018-07-03T23:31:32.032Z,51.00
2018-07-03T23:34:02.112Z,51.50
2018-07-03T23:36:32.226Z,51.50
2018-07-03T23:39:02.244Z,51.30
2018-07-03T23:41:32.330Z,52.60
2018-07-03T23:44:02.420Z,53.60
2018-07-03T23:46:43.605Z,52.70
2018-07-03T23:49:24.721Z,53.00
2018-07-03T23:52:05.825Z,52.70
2018-07-03T23:54:46.944Z,53.20
2018-07-03T23:57:27.972Z,53.20
